sensor_id;sensor_type;location;lat;lon;timestamp;P1;durP1;ratioP1;P2;durP2;ratioP2
14165;SDS011;7162;52.422;13.754;2023-02-28T00:01:47;3.17;;;1.00;;
14165;SDS011;7162;52.422;13.754;2023-02-28T00:04:14;1.83;;;1.17;;
14165;SDS011;7162;52.422;13.754;2023-02-28T00:06:41;2.40;;;1.00;;
14165;SDS011;7162;52.422;13.754;2023-02-28T00:09:08;3.93;;;1.80;;
14165;SDS011;7162;52.422;13.754;2023-02-28T00:11:36;1.93;;;1.27;;
14165;SDS011;7162;52.422;13.754;2023-02-28T00:14:03;1.90;;;1.40;;
14165;SDS011;7162;52.422;13.754;2023-02-28T00:16:30;1.13;;;0.90;;
14165;SDS011;7162;52.422;13.754;2023-02-28T00:18:57;1.07;;;1.00;;
14165;SDS011;7162;52.422;13.754;2023-02-28T00:21:24;2.90;;;1.27;;
14165;SDS011;7162;52.422;13.754;2023-02-28T00:23:51;1.50;;;1.30;;
14165;SDS011;7162;52.422;13.754;2023-02-28T00:26:18;1.30;;;1.13;;
14165;SDS011;7162;52.422;13.754;2023-02-28T00:28:46;0.80;;;0.80;;
14165;SDS011;7162;52.422;13.754;2023-02-28T00:31:14;3.57;;;1.30;;
14165;SDS011;7162;52.422;13.754;2023-02-28T00:33:41;1.50;;;1.20;;
14165;SDS011;7162;52.422;13.754;2023-02-28T00:36:08;1.80;;;1.10;;
14165;SDS011;7162;52.422;13.754;2023-02-28T00:38:36;1.40;;;1.30;;
14165;SDS011;7162;52.422;13.754;2023-02-28T00:41:03;1.97;;;1.50;;
14165;SDS011;7162;52.422;13.754;2023-02-28T00:43:31;1.30;;;1.20;;
14165;SDS011;7162;52.422;13.754;2023-02-28T00:45:59;3.97;;;1.60;;
14165;SDS011;7162;52.422;13.754;2023-02-28T00:48:26;2.20;;;1.20;;
14165;SDS011;7162;52.422;13.754;2023-02-28T00:50:53;1.40;;;1.30;;
14165;SDS011;7162;52.422;13.754;2023-02-28T00:53:20;2.00;;;1.30;;
14165;SDS011;7162;52.422;13.754;2023-02-28T00:55:48;1.40;;;1.30;;
14165;SDS011;7162;52.422;13.754;2023-02-28T00:58:15;2.17;;;1.47;;
14165;SDS011;7162;52.422;13.754;2023-02-28T01:00:42;2.43;;;1.20;;
14165;SDS011;7162;52.422;13.754;2023-02-28T01:03:15;1.70;;;1.23;;
14165;SDS011;7162;52.422;13.754;2023-02-28T01:05:42;1.97;;;1.10;;
14165;SDS011;7162;52.422;13.754;2023-02-28T01:08:09;4.27;;;1.20;;
14165;SDS011;7162;52.422;13.754;2023-02-28T01:10:36;1.43;;;1.33;;
14165;SDS011;7162;52.422;13.754;2023-02-28T01:13:03;1.30;;;1.07;;
14165;SDS011;7162;52.422;13.754;2023-02-28T01:15:30;1.30;;;1.10;;
14165;SDS011;7162;52.422;13.754;2023-02-28T01:17:57;1.93;;;1.30;;
14165;SDS011;7162;52.422;13.754;2023-02-28T01:20:26;1.20;;;1.10;;
14165;SDS011;7162;52.422;13.754;2023-02-28T01:22:53;1.73;;;1.37;;
14165;SDS011;7162;52.422;13.754;2023-02-28T01:25:20;1.30;;;1.20;;
14165;SDS011;7162;52.422;13.754;2023-02-28T01:27:47;3.20;;;1.40;;
14165;SDS011;7162;52.422;13.754;2023-02-28T01:30:14;1.30;;;1.20;;
14165;SDS011;7162;52.422;13.754;2023-02-28T01:32:41;4.03;;;1.27;;
14165;SDS011;7162;52.422;13.754;2023-02-28T01:35:08;2.40;;;1.40;;
14165;SDS011;7162;52.422;13.754;2023-02-28T01:37:36;1.47;;;1.20;;
14165;SDS011;7162;52.422;13.754;2023-02-28T01:40:04;1.90;;;1.40;;
14165;SDS011;7162;52.422;13.754;2023-02-28T01:42:31;1.83;;;1.10;;
14165;SDS011;7162;52.422;13.754;2023-02-28T01:45:00;2.20;;;1.30;;
14165;SDS011;7162;52.422;13.754;2023-02-28T01:47:29;1.10;;;1.00;;
14165;SDS011;7162;52.422;13.754;2023-02-28T01:49:57;1.97;;;1.47;;
14165;SDS011;7162;52.422;13.754;2023-02-28T01:52:24;2.13;;;1.57;;
14165;SDS011;7162;52.422;13.754;2023-02-28T01:54:55;2.03;;;1.40;;
14165;SDS011;7162;52.422;13.754;2023-02-28T01:57:23;2.07;;;1.53;;
14165;SDS011;7162;52.422;13.754;2023-02-28T01:59:52;1.67;;;1.27;;
14165;SDS011;7162;52.422;13.754;2023-02-28T02:02:20;3.10;;;1.20;;
14165;SDS011;7162;52.422;13.754;2023-02-28T02:04:50;1.73;;;1.37;;
14165;SDS011;7162;52.422;13.754;2023-02-28T02:07:17;2.40;;;1.30;;
14165;SDS011;7162;52.422;13.754;2023-02-28T02:09:44;3.30;;;1.50;;
14165;SDS011;7162;52.422;13.754;2023-02-28T02:12:15;3.30;;;1.50;;
14165;SDS011;7162;52.422;13.754;2023-02-28T02:14:46;2.70;;;1.23;;
14165;SDS011;7162;52.422;13.754;2023-02-28T02:17:19;1.40;;;1.30;;
14165;SDS011;7162;52.422;13.754;2023-02-28T02:19:55;2.00;;;1.10;;
14165;SDS011;7162;52.422;13.754;2023-02-28T02:22:37;2.20;;;1.50;;
14165;SDS011;7162;52.422;13.754;2023-02-28T02:27:59;3.93;;;1.40;;
14165;SDS011;7162;52.422;13.754;2023-02-28T02:33:23;2.53;;;1.50;;
14165;SDS011;7162;52.422;13.754;2023-02-28T02:35:55;1.20;;;1.10;;
14165;SDS011;7162;52.422;13.754;2023-02-28T02:38:27;3.30;;;1.63;;
14165;SDS011;7162;52.422;13.754;2023-02-28T02:40:58;2.90;;;1.40;;
14165;SDS011;7162;52.422;13.754;2023-02-28T02:43:32;3.73;;;1.50;;
14165;SDS011;7162;52.422;13.754;2023-02-28T02:46:02;1.37;;;1.20;;
14165;SDS011;7162;52.422;13.754;2023-02-28T02:48:32;3.03;;;1.57;;
14165;SDS011;7162;52.422;13.754;2023-02-28T02:51:03;1.73;;;1.40;;
14165;SDS011;7162;52.422;13.754;2023-02-28T02:53:37;1.80;;;1.43;;
14165;SDS011;7162;52.422;13.754;2023-02-28T02:56:05;1.50;;;1.40;;
14165;SDS011;7162;52.422;13.754;2023-02-28T02:58:33;11.03;;;1.50;;
14165;SDS011;7162;52.422;13.754;2023-02-28T03:01:06;1.97;;;1.70;;
14165;SDS011;7162;52.422;13.754;2023-02-28T03:03:34;2.23;;;1.23;;
14165;SDS011;7162;52.422;13.754;2023-02-28T03:06:03;1.70;;;1.30;;
14165;SDS011;7162;52.422;13.754;2023-02-28T03:08:33;2.27;;;1.20;;
14165;SDS011;7162;52.422;13.754;2023-02-28T03:11:01;4.33;;;1.60;;
14165;SDS011;7162;52.422;13.754;2023-02-28T03:13:42;4.27;;;1.30;;
14165;SDS011;7162;52.422;13.754;2023-02-28T03:16:15;1.93;;;1.07;;
14165;SDS011;7162;52.422;13.754;2023-02-28T03:18:47;1.70;;;1.30;;
14165;SDS011;7162;52.422;13.754;2023-02-28T03:21:20;1.87;;;1.33;;
14165;SDS011;7162;52.422;13.754;2023-02-28T03:23:53;4.70;;;1.60;;
14165;SDS011;7162;52.422;13.754;2023-02-28T03:26:23;1.30;;;1.20;;
14165;SDS011;7162;52.422;13.754;2023-02-28T03:28:53;1.63;;;1.30;;
14165;SDS011;7162;52.422;13.754;2023-02-28T03:31:25;1.40;;;1.30;;
14165;SDS011;7162;52.422;13.754;2023-02-28T03:33:55;1.33;;;1.10;;
14165;SDS011;7162;52.422;13.754;2023-02-28T03:36:25;0.90;;;0.90;;
14165;SDS011;7162;52.422;13.754;2023-02-28T03:38:54;3.17;;;1.80;;
14165;SDS011;7162;52.422;13.754;2023-02-28T03:41:23;3.70;;;1.00;;
14165;SDS011;7162;52.422;13.754;2023-02-28T03:43:53;2.03;;;1.53;;
14165;SDS011;7162;52.422;13.754;2023-02-28T03:46:21;1.33;;;0.73;;
14165;SDS011;7162;52.422;13.754;2023-02-28T03:48:50;2.00;;;1.37;;
14165;SDS011;7162;52.422;13.754;2023-02-28T03:51:18;1.57;;;1.40;;
14165;SDS011;7162;52.422;13.754;2023-02-28T03:53:50;2.50;;;1.27;;
14165;SDS011;7162;52.422;13.754;2023-02-28T03:56:18;1.90;;;1.27;;
14165;SDS011;7162;52.422;13.754;2023-02-28T03:58:47;1.47;;;1.03;;
14165;SDS011;7162;52.422;13.754;2023-02-28T04:01:16;1.30;;;1.00;;
14165;SDS011;7162;52.422;13.754;2023-02-28T04:03:45;1.30;;;1.20;;
14165;SDS011;7162;52.422;13.754;2023-02-28T04:06:13;2.60;;;1.40;;
14165;SDS011;7162;52.422;13.754;2023-02-28T04:08:41;2.97;;;1.93;;
14165;SDS011;7162;52.422;13.754;2023-02-28T04:11:13;1.30;;;1.20;;
14165;SDS011;7162;52.422;13.754;2023-02-28T04:13:43;3.40;;;1.13;;
14165;SDS011;7162;52.422;13.754;2023-02-28T04:16:10;2.40;;;1.30;;
14165;SDS011;7162;52.422;13.754;2023-02-28T04:18:37;2.60;;;1.40;;
14165;SDS011;7162;52.422;13.754;2023-02-28T04:21:05;3.30;;;1.60;;
14165;SDS011;7162;52.422;13.754;2023-02-28T04:23:32;1.33;;;1.03;;
14165;SDS011;7162;52.422;13.754;2023-02-28T04:25:59;1.60;;;1.50;;
14165;SDS011;7162;52.422;13.754;2023-02-28T04:28:28;2.57;;;1.77;;
14165;SDS011;7162;52.422;13.754;2023-02-28T04:30:55;2.70;;;1.23;;
14165;SDS011;7162;52.422;13.754;2023-02-28T04:33:22;2.00;;;1.40;;
14165;SDS011;7162;52.422;13.754;2023-02-28T04:35:57;1.60;;;1.50;;
14165;SDS011;7162;52.422;13.754;2023-02-28T04:38:24;2.27;;;1.77;;
14165;SDS011;7162;52.422;13.754;2023-02-28T04:40:51;1.80;;;1.70;;
14165;SDS011;7162;52.422;13.754;2023-02-28T04:43:18;1.30;;;1.20;;
14165;SDS011;7162;52.422;13.754;2023-02-28T04:45:46;2.63;;;1.30;;
14165;SDS011;7162;52.422;13.754;2023-02-28T04:48:13;1.37;;;1.27;;
14165;SDS011;7162;52.422;13.754;2023-02-28T04:50:40;2.50;;;1.10;;
14165;SDS011;7162;52.422;13.754;2023-02-28T04:53:08;2.73;;;1.50;;
14165;SDS011;7162;52.422;13.754;2023-02-28T04:55:35;2.60;;;1.30;;
14165;SDS011;7162;52.422;13.754;2023-02-28T04:58:05;1.53;;;1.43;;
14165;SDS011;7162;52.422;13.754;2023-02-28T05:00:32;1.63;;;1.43;;
14165;SDS011;7162;52.422;13.754;2023-02-28T05:03:00;1.60;;;1.50;;
14165;SDS011;7162;52.422;13.754;2023-02-28T05:05:28;2.17;;;1.67;;
14165;SDS011;7162;52.422;13.754;2023-02-28T05:07:55;1.87;;;1.50;;
14165;SDS011;7162;52.422;13.754;2023-02-28T05:10:23;2.73;;;1.90;;
14165;SDS011;7162;52.422;13.754;2023-02-28T05:12:50;4.60;;;1.50;;
14165;SDS011;7162;52.422;13.754;2023-02-28T05:15:17;1.87;;;1.40;;
14165;SDS011;7162;52.422;13.754;2023-02-28T05:17:44;1.57;;;1.47;;
14165;SDS011;7162;52.422;13.754;2023-02-28T05:20:13;3.53;;;1.80;;
14165;SDS011;7162;52.422;13.754;2023-02-28T05:22:40;3.13;;;1.70;;
14165;SDS011;7162;52.422;13.754;2023-02-28T05:25:08;1.83;;;1.10;;
14165;SDS011;7162;52.422;13.754;2023-02-28T05:27:37;4.73;;;1.80;;
14165;SDS011;7162;52.422;13.754;2023-02-28T05:30:05;1.70;;;1.27;;
14165;SDS011;7162;52.422;13.754;2023-02-28T05:32:35;2.17;;;1.50;;
14165;SDS011;7162;52.422;13.754;2023-02-28T05:35:02;6.00;;;1.60;;
14165;SDS011;7162;52.422;13.754;2023-02-28T05:37:31;4.63;;;2.00;;
14165;SDS011;7162;52.422;13.754;2023-02-28T05:39:58;1.90;;;1.50;;
14165;SDS011;7162;52.422;13.754;2023-02-28T05:42:25;2.27;;;1.80;;
14165;SDS011;7162;52.422;13.754;2023-02-28T05:44:52;1.93;;;1.40;;
14165;SDS011;7162;52.422;13.754;2023-02-28T05:47:19;2.40;;;1.93;;
14165;SDS011;7162;52.422;13.754;2023-02-28T05:49:46;2.80;;;1.50;;
14165;SDS011;7162;52.422;13.754;2023-02-28T05:52:13;2.70;;;1.47;;
14165;SDS011;7162;52.422;13.754;2023-02-28T05:54:41;4.03;;;1.90;;
14165;SDS011;7162;52.422;13.754;2023-02-28T05:57:09;1.80;;;1.60;;
14165;SDS011;7162;52.422;13.754;2023-02-28T05:59:36;2.30;;;1.50;;
14165;SDS011;7162;52.422;13.754;2023-02-28T06:02:04;2.80;;;2.00;;
14165;SDS011;7162;52.422;13.754;2023-02-28T06:04:32;3.77;;;2.10;;
14165;SDS011;7162;52.422;13.754;2023-02-28T06:06:59;2.13;;;1.60;;
14165;SDS011;7162;52.422;13.754;2023-02-28T06:09:26;3.80;;;2.50;;
14165;SDS011;7162;52.422;13.754;2023-02-28T06:11:55;5.10;;;2.23;;
14165;SDS011;7162;52.422;13.754;2023-02-28T06:14:23;3.17;;;1.73;;
14165;SDS011;7162;52.422;13.754;2023-02-28T06:16:51;2.63;;;1.50;;
14165;SDS011;7162;52.422;13.754;2023-02-28T06:19:18;2.10;;;1.70;;
14165;SDS011;7162;52.422;13.754;2023-02-28T06:21:45;3.00;;;1.97;;
14165;SDS011;7162;52.422;13.754;2023-02-28T06:24:12;5.50;;;2.30;;
14165;SDS011;7162;52.422;13.754;2023-02-28T06:26:39;7.60;;;3.27;;
14165;SDS011;7162;52.422;13.754;2023-02-28T06:29:07;5.90;;;3.57;;
14165;SDS011;7162;52.422;13.754;2023-02-28T06:31:34;16.40;;;5.13;;
14165;SDS011;7162;52.422;13.754;2023-02-28T06:34:01;9.37;;;4.20;;
14165;SDS011;7162;52.422;13.754;2023-02-28T06:36:29;17.27;;;4.80;;
14165;SDS011;7162;52.422;13.754;2023-02-28T06:38:56;13.60;;;4.83;;
14165;SDS011;7162;52.422;13.754;2023-02-28T06:41:23;11.00;;;5.37;;
14165;SDS011;7162;52.422;13.754;2023-02-28T06:43:50;9.13;;;4.43;;
14165;SDS011;7162;52.422;13.754;2023-02-28T06:46:19;15.83;;;4.60;;
14165;SDS011;7162;52.422;13.754;2023-02-28T06:48:46;11.83;;;4.43;;
14165;SDS011;7162;52.422;13.754;2023-02-28T06:51:14;10.80;;;4.33;;
14165;SDS011;7162;52.422;13.754;2023-02-28T06:53:41;5.27;;;2.63;;
14165;SDS011;7162;52.422;13.754;2023-02-28T06:56:09;5.27;;;2.07;;
14165;SDS011;7162;52.422;13.754;2023-02-28T06:58:37;8.30;;;3.33;;
14165;SDS011;7162;52.422;13.754;2023-02-28T07:01:05;13.23;;;4.77;;
14165;SDS011;7162;52.422;13.754;2023-02-28T07:03:34;5.33;;;3.10;;
14165;SDS011;7162;52.422;13.754;2023-02-28T07:06:01;7.90;;;3.03;;
14165;SDS011;7162;52.422;13.754;2023-02-28T07:08:29;3.07;;;2.77;;
14165;SDS011;7162;52.422;13.754;2023-02-28T07:10:56;4.23;;;3.00;;
14165;SDS011;7162;52.422;13.754;2023-02-28T07:13:24;11.93;;;2.60;;
14165;SDS011;7162;52.422;13.754;2023-02-28T07:15:54;4.60;;;2.17;;
14165;SDS011;7162;52.422;13.754;2023-02-28T07:18:21;4.50;;;1.87;;
14165;SDS011;7162;52.422;13.754;2023-02-28T07:20:50;6.60;;;2.50;;
14165;SDS011;7162;52.422;13.754;2023-02-28T07:23:17;4.37;;;2.00;;
14165;SDS011;7162;52.422;13.754;2023-02-28T07:25:44;6.10;;;3.07;;
14165;SDS011;7162;52.422;13.754;2023-02-28T07:28:11;3.93;;;2.63;;
14165;SDS011;7162;52.422;13.754;2023-02-28T07:30:38;4.70;;;2.90;;
14165;SDS011;7162;52.422;13.754;2023-02-28T07:33:06;3.27;;;2.30;;
14165;SDS011;7162;52.422;13.754;2023-02-28T07:35:33;2.97;;;2.30;;
14165;SDS011;7162;52.422;13.754;2023-02-28T07:38:01;3.13;;;2.30;;
14165;SDS011;7162;52.422;13.754;2023-02-28T07:40:28;6.23;;;2.80;;
14165;SDS011;7162;52.422;13.754;2023-02-28T07:42:55;5.10;;;2.43;;
14165;SDS011;7162;52.422;13.754;2023-02-28T07:45:22;3.93;;;2.23;;
14165;SDS011;7162;52.422;13.754;2023-02-28T07:47:49;3.97;;;2.27;;
14165;SDS011;7162;52.422;13.754;2023-02-28T07:50:16;7.57;;;2.50;;
14165;SDS011;7162;52.422;13.754;2023-02-28T07:52:43;3.80;;;2.50;;
14165;SDS011;7162;52.422;13.754;2023-02-28T07:55:12;5.23;;;2.20;;
14165;SDS011;7162;52.422;13.754;2023-02-28T07:57:39;4.40;;;2.80;;
14165;SDS011;7162;52.422;13.754;2023-02-28T08:00:07;2.77;;;2.47;;
14165;SDS011;7162;52.422;13.754;2023-02-28T08:02:35;4.23;;;2.83;;
14165;SDS011;7162;52.422;13.754;2023-02-28T08:05:02;6.80;;;3.60;;
14165;SDS011;7162;52.422;13.754;2023-02-28T08:07:29;8.03;;;3.67;;
14165;SDS011;7162;52.422;13.754;2023-02-28T08:09:57;3.90;;;2.73;;
14165;SDS011;7162;52.422;13.754;2023-02-28T08:12:25;4.83;;;3.13;;
14165;SDS011;7162;52.422;13.754;2023-02-28T08:14:53;6.07;;;2.50;;
14165;SDS011;7162;52.422;13.754;2023-02-28T08:17:20;2.67;;;2.33;;
14165;SDS011;7162;52.422;13.754;2023-02-28T08:19:47;5.70;;;3.27;;
14165;SDS011;7162;52.422;13.754;2023-02-28T08:22:14;5.87;;;2.60;;
14165;SDS011;7162;52.422;13.754;2023-02-28T08:24:46;2.03;;;1.90;;
14165;SDS011;7162;52.422;13.754;2023-02-28T08:27:14;6.40;;;2.87;;
14165;SDS011;7162;52.422;13.754;2023-02-28T08:29:43;7.53;;;2.60;;
14165;SDS011;7162;52.422;13.754;2023-02-28T08:32:10;7.40;;;2.70;;
14165;SDS011;7162;52.422;13.754;2023-02-28T08:34:38;6.90;;;2.57;;
14165;SDS011;7162;52.422;13.754;2023-02-28T08:37:06;4.97;;;2.70;;
14165;SDS011;7162;52.422;13.754;2023-02-28T08:39:33;4.03;;;2.77;;
14165;SDS011;7162;52.422;13.754;2023-02-28T08:42:01;3.60;;;2.40;;
14165;SDS011;7162;52.422;13.754;2023-02-28T08:44:28;6.33;;;2.57;;
14165;SDS011;7162;52.422;13.754;2023-02-28T08:46:56;3.50;;;2.20;;
14165;SDS011;7162;52.422;13.754;2023-02-28T08:49:23;8.60;;;2.40;;
14165;SDS011;7162;52.422;13.754;2023-02-28T08:51:50;7.30;;;2.80;;
14165;SDS011;7162;52.422;13.754;2023-02-28T08:54:17;14.40;;;2.10;;
14165;SDS011;7162;52.422;13.754;2023-02-28T08:56:44;3.10;;;1.83;;
14165;SDS011;7162;52.422;13.754;2023-02-28T08:59:12;2.33;;;1.80;;
14165;SDS011;7162;52.422;13.754;2023-02-28T09:01:39;2.93;;;1.57;;
14165;SDS011;7162;52.422;13.754;2023-02-28T09:04:10;6.27;;;2.10;;
14165;SDS011;7162;52.422;13.754;2023-02-28T09:06:37;5.17;;;1.93;;
14165;SDS011;7162;52.422;13.754;2023-02-28T09:09:04;4.47;;;1.70;;
14165;SDS011;7162;52.422;13.754;2023-02-28T09:11:32;1.83;;;1.53;;
14165;SDS011;7162;52.422;13.754;2023-02-28T09:14:00;3.90;;;1.80;;
14165;SDS011;7162;52.422;13.754;2023-02-28T09:16:28;1.70;;;1.50;;
14165;SDS011;7162;52.422;13.754;2023-02-28T09:18:55;3.17;;;1.37;;
14165;SDS011;7162;52.422;13.754;2023-02-28T09:21:24;8.30;;;1.73;;
14165;SDS011;7162;52.422;13.754;2023-02-28T09:23:51;1.90;;;1.27;;
14165;SDS011;7162;52.422;13.754;2023-02-28T09:26:19;3.23;;;1.40;;
14165;SDS011;7162;52.422;13.754;2023-02-28T09:28:47;1.63;;;1.20;;
14165;SDS011;7162;52.422;13.754;2023-02-28T09:31:14;1.37;;;1.07;;
14165;SDS011;7162;52.422;13.754;2023-02-28T09:33:42;1.20;;;1.00;;
14165;SDS011;7162;52.422;13.754;2023-02-28T09:36:09;3.10;;;1.20;;
14165;SDS011;7162;52.422;13.754;2023-02-28T09:38:37;2.13;;;1.17;;
14165;SDS011;7162;52.422;13.754;2023-02-28T09:41:10;0.97;;;0.90;;
14165;SDS011;7162;52.422;13.754;2023-02-28T09:43:38;1.30;;;1.10;;
14165;SDS011;7162;52.422;13.754;2023-02-28T09:46:08;2.30;;;1.13;;
14165;SDS011;7162;52.422;13.754;2023-02-28T09:48:39;1.00;;;0.90;;
14165;SDS011;7162;52.422;13.754;2023-02-28T09:51:11;3.93;;;0.90;;
14165;SDS011;7162;52.422;13.754;2023-02-28T09:53:42;1.43;;;1.10;;
14165;SDS011;7162;52.422;13.754;2023-02-28T09:56:10;2.23;;;0.93;;
14165;SDS011;7162;52.422;13.754;2023-02-28T09:58:39;5.93;;;1.30;;
14165;SDS011;7162;52.422;13.754;2023-02-28T10:01:09;2.97;;;1.23;;
14165;SDS011;7162;52.422;13.754;2023-02-28T10:03:38;2.50;;;1.43;;
14165;SDS011;7162;52.422;13.754;2023-02-28T10:06:07;5.00;;;1.07;;
14165;SDS011;7162;52.422;13.754;2023-02-28T10:08:37;1.60;;;1.00;;
14165;SDS011;7162;52.422;13.754;2023-02-28T10:11:09;4.27;;;2.10;;
14165;SDS011;7162;52.422;13.754;2023-02-28T10:13:39;2.43;;;1.40;;
14165;SDS011;7162;52.422;13.754;2023-02-28T10:16:11;0.90;;;0.90;;
14165;SDS011;7162;52.422;13.754;2023-02-28T10:18:41;5.30;;;0.93;;
14165;SDS011;7162;52.422;13.754;2023-02-28T10:21:13;1.00;;;0.80;;
14165;SDS011;7162;52.422;13.754;2023-02-28T10:23:43;1.20;;;1.10;;
14165;SDS011;7162;52.422;13.754;2023-02-28T10:26:14;1.40;;;1.30;;
14165;SDS011;7162;52.422;13.754;2023-02-28T10:28:42;1.60;;;0.90;;
14165;SDS011;7162;52.422;13.754;2023-02-28T10:31:11;0.90;;;0.90;;
14165;SDS011;7162;52.422;13.754;2023-02-28T10:33:38;2.47;;;1.30;;
14165;SDS011;7162;52.422;13.754;2023-02-28T10:36:05;1.40;;;0.93;;
14165;SDS011;7162;52.422;13.754;2023-02-28T10:38:33;1.87;;;1.13;;
14165;SDS011;7162;52.422;13.754;2023-02-28T10:41:03;1.53;;;1.00;;
14165;SDS011;7162;52.422;13.754;2023-02-28T10:43:32;1.77;;;1.00;;
14165;SDS011;7162;52.422;13.754;2023-02-28T10:46:01;1.40;;;1.20;;
14165;SDS011;7162;52.422;13.754;2023-02-28T10:48:30;0.87;;;0.87;;
14165;SDS011;7162;52.422;13.754;2023-02-28T10:50:57;2.00;;;1.77;;
14165;SDS011;7162;52.422;13.754;2023-02-28T10:53:30;4.85;;;2.00;;
14165;SDS011;7162;52.422;13.754;2023-02-28T10:55:59;3.60;;;2.13;;
14165;SDS011;7162;52.422;13.754;2023-02-28T10:58:27;1.30;;;1.20;;
14165;SDS011;7162;52.422;13.754;2023-02-28T11:00:56;2.53;;;1.40;;
14165;SDS011;7162;52.422;13.754;2023-02-28T11:03:33;1.23;;;1.00;;
14165;SDS011;7162;52.422;13.754;2023-02-28T11:06:04;2.33;;;1.30;;
14165;SDS011;7162;52.422;13.754;2023-02-28T11:08:31;1.87;;;1.47;;
14165;SDS011;7162;52.422;13.754;2023-02-28T11:11:01;2.17;;;1.20;;
14165;SDS011;7162;52.422;13.754;2023-02-28T11:13:31;1.30;;;1.13;;
14165;SDS011;7162;52.422;13.754;2023-02-28T11:16:00;1.93;;;1.37;;
14165;SDS011;7162;52.422;13.754;2023-02-28T11:18:33;1.30;;;1.20;;
14165;SDS011;7162;52.422;13.754;2023-02-28T11:21:05;2.40;;;1.37;;
14165;SDS011;7162;52.422;13.754;2023-02-28T11:23:33;3.97;;;1.40;;
14165;SDS011;7162;52.422;13.754;2023-02-28T11:26:02;2.80;;;1.33;;
14165;SDS011;7162;52.422;13.754;2023-02-28T11:28:35;2.03;;;1.27;;
14165;SDS011;7162;52.422;13.754;2023-02-28T11:31:05;4.40;;;1.40;;
14165;SDS011;7162;52.422;13.754;2023-02-28T11:33:40;5.43;;;1.50;;
14165;SDS011;7162;52.422;13.754;2023-02-28T11:36:11;1.60;;;1.50;;
14165;SDS011;7162;52.422;13.754;2023-02-28T11:38:39;1.20;;;1.10;;
14165;SDS011;7162;52.422;13.754;2023-02-28T11:41:10;8.00;;;2.13;;
14165;SDS011;7162;52.422;13.754;2023-02-28T11:43:47;1.17;;;1.07;;
14165;SDS011;7162;52.422;13.754;2023-02-28T11:46:23;1.27;;;1.17;;
14165;SDS011;7162;52.422;13.754;2023-02-28T11:48:54;4.07;;;1.60;;
14165;SDS011;7162;52.422;13.754;2023-02-28T11:51:26;2.73;;;1.37;;
14165;SDS011;7162;52.422;13.754;2023-02-28T11:53:58;3.37;;;1.87;;
14165;SDS011;7162;52.422;13.754;2023-02-28T11:56:32;8.87;;;1.77;;
14165;SDS011;7162;52.422;13.754;2023-02-28T11:59:08;1.63;;;1.30;;
14165;SDS011;7162;52.422;13.754;2023-02-28T12:01:45;3.77;;;1.17;;
14165;SDS011;7162;52.422;13.754;2023-02-28T12:04:22;1.53;;;1.33;;
14165;SDS011;7162;52.422;13.754;2023-02-28T12:06:52;1.90;;;1.30;;
14165;SDS011;7162;52.422;13.754;2023-02-28T12:09:35;1.13;;;1.03;;
14165;SDS011;7162;52.422;13.754;2023-02-28T12:12:10;3.27;;;1.30;;
14165;SDS011;7162;52.422;13.754;2023-02-28T12:14:47;17.43;;;1.30;;
14165;SDS011;7162;52.422;13.754;2023-02-28T12:17:29;2.77;;;1.23;;
14165;SDS011;7162;52.422;13.754;2023-02-28T12:20:02;2.67;;;1.20;;
14165;SDS011;7162;52.422;13.754;2023-02-28T12:22:35;1.20;;;1.00;;
14165;SDS011;7162;52.422;13.754;2023-02-28T12:25:19;1.43;;;1.23;;
14165;SDS011;7162;52.422;13.754;2023-02-28T12:27:48;1.57;;;1.17;;
14165;SDS011;7162;52.422;13.754;2023-02-28T12:30:19;1.77;;;1.20;;
14165;SDS011;7162;52.422;13.754;2023-02-28T12:32:50;2.20;;;1.50;;
14165;SDS011;7162;52.422;13.754;2023-02-28T12:35:21;1.93;;;1.23;;
14165;SDS011;7162;52.422;13.754;2023-02-28T12:37:51;3.10;;;1.53;;
14165;SDS011;7162;52.422;13.754;2023-02-28T12:40:25;5.43;;;1.63;;
14165;SDS011;7162;52.422;13.754;2023-02-28T12:42:54;4.47;;;1.67;;
14165;SDS011;7162;52.422;13.754;2023-02-28T12:45:24;2.73;;;1.40;;
14165;SDS011;7162;52.422;13.754;2023-02-28T12:47:55;3.10;;;1.40;;
14165;SDS011;7162;52.422;13.754;2023-02-28T12:50:24;5.23;;;1.90;;
14165;SDS011;7162;52.422;13.754;2023-02-28T12:52:53;4.90;;;1.43;;
14165;SDS011;7162;52.422;13.754;2023-02-28T12:55:27;1.40;;;1.13;;
14165;SDS011;7162;52.422;13.754;2023-02-28T12:58:01;2.40;;;1.60;;
14165;SDS011;7162;52.422;13.754;2023-02-28T13:00:33;2.40;;;1.53;;
14165;SDS011;7162;52.422;13.754;2023-02-28T13:05:49;1.67;;;1.20;;
14165;SDS011;7162;52.422;13.754;2023-02-28T13:08:21;2.10;;;1.43;;
14165;SDS011;7162;52.422;13.754;2023-02-28T13:10:52;2.07;;;1.37;;
14165;SDS011;7162;52.422;13.754;2023-02-28T13:13:20;3.17;;;1.53;;
14165;SDS011;7162;52.422;13.754;2023-02-28T13:15:58;1.87;;;1.57;;
14165;SDS011;7162;52.422;13.754;2023-02-28T13:18:27;3.63;;;2.03;;
14165;SDS011;7162;52.422;13.754;2023-02-28T13:20:56;2.13;;;1.60;;
14165;SDS011;7162;52.422;13.754;2023-02-28T13:23:37;1.70;;;1.37;;
14165;SDS011;7162;52.422;13.754;2023-02-28T13:26:05;2.27;;;1.40;;
14165;SDS011;7162;52.422;13.754;2023-02-28T13:34:15;2.50;;;1.77;;
14165;SDS011;7162;52.422;13.754;2023-02-28T13:36:44;1.63;;;1.47;;
14165;SDS011;7162;52.422;13.754;2023-02-28T13:41:57;2.03;;;1.53;;
14165;SDS011;7162;52.422;13.754;2023-02-28T13:47:30;3.47;;;1.90;;
14165;SDS011;7162;52.422;13.754;2023-02-28T13:52:57;4.57;;;2.00;;
14165;SDS011;7162;52.422;13.754;2023-02-28T13:55:30;1.60;;;1.40;;
14165;SDS011;7162;52.422;13.754;2023-02-28T13:58:09;7.93;;;1.70;;
14165;SDS011;7162;52.422;13.754;2023-02-28T14:00:43;3.00;;;1.50;;
14165;SDS011;7162;52.422;13.754;2023-02-28T14:03:17;3.83;;;1.70;;
14165;SDS011;7162;52.422;13.754;2023-02-28T14:05:46;7.30;;;4.10;;
14165;SDS011;7162;52.422;13.754;2023-02-28T14:08:18;2.30;;;1.73;;
14165;SDS011;7162;52.422;13.754;2023-02-28T14:10:50;1.30;;;1.20;;
14165;SDS011;7162;52.422;13.754;2023-02-28T14:13:43;3.97;;;1.57;;
14165;SDS011;7162;52.422;13.754;2023-02-28T14:16:18;2.50;;;1.57;;
14165;SDS011;7162;52.422;13.754;2023-02-28T14:18:55;1.83;;;1.13;;
14165;SDS011;7162;52.422;13.754;2023-02-28T14:21:25;4.27;;;1.50;;
14165;SDS011;7162;52.422;13.754;2023-02-28T14:26:54;4.10;;;2.53;;
14165;SDS011;7162;52.422;13.754;2023-02-28T14:29:32;1.33;;;1.23;;
14165;SDS011;7162;52.422;13.754;2023-02-28T14:32:02;3.97;;;1.83;;
14165;SDS011;7162;52.422;13.754;2023-02-28T14:34:38;2.60;;;1.20;;
14165;SDS011;7162;52.422;13.754;2023-02-28T14:37:11;1.70;;;1.57;;
14165;SDS011;7162;52.422;13.754;2023-02-28T14:39:41;1.57;;;1.27;;
14165;SDS011;7162;52.422;13.754;2023-02-28T14:44:55;2.37;;;1.73;;
14165;SDS011;7162;52.422;13.754;2023-02-28T14:47:22;3.93;;;2.00;;
14165;SDS011;7162;52.422;13.754;2023-02-28T14:49:50;2.40;;;1.60;;
14165;SDS011;7162;52.422;13.754;2023-02-28T14:52:19;8.33;;;1.83;;
14165;SDS011;7162;52.422;13.754;2023-02-28T14:54:51;5.13;;;1.43;;
14165;SDS011;7162;52.422;13.754;2023-02-28T14:57:22;5.47;;;2.10;;
14165;SDS011;7162;52.422;13.754;2023-02-28T14:59:59;4.03;;;1.83;;
14165;SDS011;7162;52.422;13.754;2023-02-28T15:02:34;4.80;;;2.33;;
14165;SDS011;7162;52.422;13.754;2023-02-28T15:05:16;2.53;;;1.40;;
14165;SDS011;7162;52.422;13.754;2023-02-28T15:07:49;4.00;;;1.80;;
14165;SDS011;7162;52.422;13.754;2023-02-28T15:10:30;5.00;;;2.17;;
14165;SDS011;7162;52.422;13.754;2023-02-28T15:12:58;2.10;;;1.90;;
14165;SDS011;7162;52.422;13.754;2023-02-28T15:15:30;3.20;;;1.87;;
14165;SDS011;7162;52.422;13.754;2023-02-28T15:18:01;4.87;;;2.20;;
14165;SDS011;7162;52.422;13.754;2023-02-28T15:20:29;5.97;;;2.27;;
14165;SDS011;7162;52.422;13.754;2023-02-28T15:22:56;4.70;;;2.30;;
14165;SDS011;7162;52.422;13.754;2023-02-28T15:25:23;4.47;;;3.07;;
14165;SDS011;7162;52.422;13.754;2023-02-28T15:27:52;4.20;;;2.80;;
14165;SDS011;7162;52.422;13.754;2023-02-28T15:30:20;3.77;;;2.10;;